Time;durP1;ratioP1;P1;durP2;ratioP2;P2;SDS_P1;SDS_P2;PMS_P1;PMS_P2;Temp;Humidity;BMP_temperature;BMP_pressure;BME280_temperature;BME280_humidity;BME280_pressure;Samples;Min_cycle;Max_cycle;Signal;HPM_P1;HPM_P2
2022/01/13 00:00:50;;;;;;;9.48;6.28;;;;;;;;;;5032871;28;20034;-68
2022/01/13 00:03:15;;;;;;;8.88;7.28;;;;;;;;;;5033119;28;20366;-65
2022/01/13 00:05:41;;;;;;;9.30;5.72;;;;;;;;;;5043436;28;20064;-62
2022/01/13 00:08:07;;;;;;;10.82;5.00;;;;;;;;;;5053618;28;20040;-69
2022/01/13 00:10:33;;;;;;;9.63;5.03;;;;;;;;;;5034411;28;20540;-65
2022/01/13 00:13:07;;;;;;;8.50;6.43;;;;;;;;;;5050735;28;20032;-62
2022/01/13 00:15:50;;;;;;;9.63;6.05;;;;;;;;;;5055558;28;20036;-68
2022/01/13 00:18:37;;;;;;;10.23;5.93;;;;;;;;;;5052200;28;20037;-64
2022/01/13 00:23:43;;;;;;;11.40;6.53;;;;;;;;;;5033522;28;20034;-65
2022/01/13 00:26:24;;;;;;;11.77;5.95;;;;;;;;;;5032697;28;20120;-65
2022/01/13 00:28:52;;;;;;;11.65;7.35;;;;;;;;;;5033107;28;20034;-69
2022/01/13 00:31:26;;;;;;;9.32;6.45;;;;;;;;;;5033108;28;20046;-69
2022/01/13 00:33:57;;;;;;;9.13;7.10;;;;;;;;;;5033118;28;20076;-65
2022/01/13 00:36:25;;;;;;;9.30;5.90;;;;;;;;;;5032591;28;20040;-65
2022/01/13 00:38:51;;;;;;;10.68;6.85;;;;;;;;;;5034565;28;20025;-68
2022/01/13 00:41:19;;;;;;;9.35;6.75;;;;;;;;;;5052720;28;20056;-66
2022/01/13 00:43:47;;;;;;;10.88;6.68;;;;;;;;;;5051770;28;20021;-64
2022/01/13 00:46:21;;;;;;;10.50;6.20;;;;;;;;;;5052706;28;20040;-64
2022/01/13 00:48:48;;;;;;;10.82;7.32;;;;;;;;;;5053418;28;20065;-68
2022/01/13 00:51:15;;;;;;;10.27;6.85;;;;;;;;;;5053378;28;20053;-65
2022/01/13 00:53:41;;;;;;;10.82;7.70;;;;;;;;;;5051723;28;20562;-63
2022/01/13 00:56:07;;;;;;;12.10;7.68;;;;;;;;;;5044679;28;20078;-64
2022/01/13 00:58:35;;;;;;;13.88;8.63;;;;;;;;;;5052860;28;20033;-66
2022/01/13 01:01:04;;;;;;;13.60;7.55;;;;;;;;;;5052204;28;20071;-67
2022/01/13 01:03:30;;;;;;;11.52;7.80;;;;;;;;;;5052559;28;20043;-65
2022/01/13 01:05:56;;;;;;;10.48;7.07;;;;;;;;;;5052610;28;20107;-72
2022/01/13 01:08:23;;;;;;;10.50;7.35;;;;;;;;;;5052041;28;20037;-65
2022/01/13 01:10:52;;;;;;;11.45;7.30;;;;;;;;;;5052250;28;20056;-66
2022/01/13 01:13:22;;;;;;;10.85;5.95;;;;;;;;;;5052409;28;20376;-65
2022/01/13 01:15:53;;;;;;;9.48;7.72;;;;;;;;;;5051834;28;20048;-65
2022/01/13 01:23:45;;;;;;;10.43;6.10;;;;;;;;;;5049813;28;20040;-66
2022/01/13 01:29:07;;;;;;;11.35;6.68;;;;;;;;;;5034494;28;20037;-64
2022/01/13 01:31:36;;;;;;;10.20;5.97;;;;;;;;;;5032805;28;20045;-66
2022/01/13 01:34:22;;;;;;;9.80;6.32;;;;;;;;;;5033301;28;20029;-65
2022/01/13 01:36:49;;;;;;;8.75;5.72;;;;;;;;;;5032362;28;20106;-63
2022/01/13 01:39:15;;;;;;;10.65;6.68;;;;;;;;;;5032603;28;20052;-66
2022/01/13 01:41:43;;;;;;;8.15;5.60;;;;;;;;;;5032212;28;20033;-63
2022/01/13 01:44:12;;;;;;;10.38;4.82;;;;;;;;;;5032048;28;20437;-64
2022/01/13 01:46:39;;;;;;;10.25;4.30;;;;;;;;;;5033274;28;20495;-70
2022/01/13 01:49:25;;;;;;;13.65;5.78;;;;;;;;;;5057200;28;20036;-64
2022/01/13 01:51:54;;;;;;;9.00;6.28;;;;;;;;;;5048162;28;20038;-69
2022/01/13 01:54:21;;;;;;;10.48;5.88;;;;;;;;;;5031158;28;20515;-63
2022/01/13 01:56:47;;;;;;;8.20;5.07;;;;;;;;;;5038165;28;20091;-63
2022/01/13 01:59:17;;;;;;;9.05;6.30;;;;;;;;;;5052767;28;20025;-68
2022/01/13 02:01:45;;;;;;;10.10;5.85;;;;;;;;;;5046764;28;20063;-64
2022/01/13 02:04:11;;;;;;;10.63;6.93;;;;;;;;;;5052139;28;20074;-68
2022/01/13 02:06:38;;;;;;;9.60;5.25;;;;;;;;;;5051848;28;20134;-69
2022/01/13 02:09:06;;;;;;;9.48;5.53;;;;;;;;;;5050907;28;20112;-65
2022/01/13 02:11:41;;;;;;;13.57;6.22;;;;;;;;;;5051489;28;20088;-72
2022/01/13 02:14:30;;;;;;;9.80;6.13;;;;;;;;;;5051756;28;20074;-65
2022/01/13 02:17:13;;;;;;;10.18;7.03;;;;;;;;;;5046887;28;20026;-65
2022/01/13 02:19:45;;;;;;;10.32;6.15;;;;;;;;;;5031363;28;20455;-69
2022/01/13 02:22:11;;;;;;;8.15;5.32;;;;;;;;;;5031429;28;20076;-69
2022/01/13 02:24:37;;;;;;;9.02;5.25;;;;;;;;;;5031294;28;20026;-65
2022/01/13 02:27:05;;;;;;;8.63;5.10;;;;;;;;;;5031492;28;20034;-65
2022/01/13 02:29:31;;;;;;;9.23;6.38;;;;;;;;;;5031656;28;20052;-66
2022/01/13 02:31:57;;;;;;;9.95;6.70;;;;;;;;;;5031076;28;20060;-67
2022/01/13 02:34:23;;;;;;;9.48;6.53;;;;;;;;;;5031361;28;20040;-66
2022/01/13 02:36:50;;;;;;;8.95;5.20;;;;;;;;;;5031499;28;20245;-66
2022/01/13 02:39:16;;;;;;;7.70;4.68;;;;;;;;;;5030865;28;20037;-65
2022/01/13 02:41:44;;;;;;;9.90;6.10;;;;;;;;;;5031225;28;20037;-66
2022/01/13 02:44:16;;;;;;;8.60;6.05;;;;;;;;;;5035412;28;20033;-65
2022/01/13 02:49:10;;;;;;;10.90;4.25;;;;;;;;;;5035250;28;20060;-65
2022/01/13 02:51:38;;;;;;;8.40;5.25;;;;;;;;;;5035180;28;20029;-65
2022/01/13 02:54:05;;;;;;;6.60;4.15;;;;;;;;;;5034736;28;20080;-65
2022/01/13 02:56:31;;;;;;;8.65;6.20;;;;;;;;;;5035229;28;20484;-65
2022/01/13 02:58:57;;;;;;;9.10;6.07;;;;;;;;;;5034881;28;20080;-69
2022/01/13 03:01:24;;;;;;;8.43;5.70;;;;;;;;;;5034548;28;20076;-63
2022/01/13 03:03:50;;;;;;;8.40;5.95;;;;;;;;;;5034267;28;20044;-66
2022/01/13 03:06:21;;;;;;;8.50;6.20;;;;;;;;;;5041840;28;21383;-67
2022/01/13 03:08:48;;;;;;;8.57;4.57;;;;;;;;;;5054345;28;20033;-66
2022/01/13 03:11:15;;;;;;;10.32;5.25;;;;;;;;;;5046684;28;20132;-66
2022/01/13 03:13:41;;;;;;;8.65;5.35;;;;;;;;;;5033473;28;20041;-65
2022/01/13 03:16:08;;;;;;;9.40;6.07;;;;;;;;;;5034353;28;20026;-64
2022/01/13 03:18:35;;;;;;;8.55;5.40;;;;;;;;;;5034700;28;20553;-67
2022/01/13 03:21:01;;;;;;;9.10;5.70;;;;;;;;;;5034358;28;20053;-63
2022/01/13 03:23:27;;;;;;;7.63;4.28;;;;;;;;;;5034050;28;20036;-68
2022/01/13 03:25:53;;;;;;;8.57;4.85;;;;;;;;;;5033287;28;20301;-66
2022/01/13 03:28:29;;;;;;;10.07;5.60;;;;;;;;;;5034163;28;20065;-64
2022/01/13 03:30:56;;;;;;;8.43;5.05;;;;;;;;;;5034547;28;20037;-63
2022/01/13 03:33:23;;;;;;;9.70;4.97;;;;;;;;;;5035128;28;20038;-65
2022/01/13 03:35:49;;;;;;;8.73;4.45;;;;;;;;;;5035583;28;20029;-65
2022/01/13 03:38:15;;;;;;;8.90;5.53;;;;;;;;;;5034698;28;20468;-66
2022/01/13 03:40:42;;;;;;;9.50;4.28;;;;;;;;;;5035069;28;20033;-65
2022/01/13 03:43:07;;;;;;;7.70;5.88;;;;;;;;;;5034229;28;20018;-64
2022/01/13 03:45:34;;;;;;;9.32;5.47;;;;;;;;;;5034257;28;20468;-67
2022/01/13 03:48:00;;;;;;;10.10;4.82;;;;;;;;;;5035125;28;20488;-63
2022/01/13 03:50:26;;;;;;;9.30;5.97;;;;;;;;;;5034958;28;20095;-63
2022/01/13 03:53:21;;;;;;;9.52;6.43;;;;;;;;;;5028668;28;20053;-65
2022/01/13 03:56:24;;;;;;;9.15;5.57;;;;;;;;;;5014921;28;20115;-67
2022/01/13 03:59:05;;;;;;;7.30;4.18;;;;;;;;;;5026614;28;20480;-66
2022/01/13 04:01:52;;;;;;;8.35;4.82;;;;;;;;;;5015247;28;20037;-64
2022/01/13 04:04:18;;;;;;;8.88;4.50;;;;;;;;;;5014733;28;20034;-67
2022/01/13 04:06:45;;;;;;;7.13;4.13;;;;;;;;;;5014712;28;20022;-64
2022/01/13 04:09:34;;;;;;;8.35;4.50;;;;;;;;;;5015011;28;20492;-63
2022/01/13 04:12:04;;;;;;;10.55;4.53;;;;;;;;;;5014775;28;20061;-73
2022/01/13 04:14:38;;;;;;;7.03;4.30;;;;;;;;;;5014885;28;20448;-67
2022/01/13 04:17:04;;;;;;;8.95;4.68;;;;;;;;;;5033403;28;20033;-65
2022/01/13 04:19:30;;;;;;;11.43;7.28;;;;;;;;;;5034763;28;20540;-63
2022/01/13 04:21:57;;;;;;;9.63;4.95;;;;;;;;;;5033943;28;20037;-68
2022/01/13 04:24:23;;;;;;;10.02;5.05;;;;;;;;;;5033809;28;20060;-64
2022/01/13 04:26:49;;;;;;;8.65;6.20;;;;;;;;;;5033749;28;20061;-68
2022/01/13 04:31:43;;;;;;;8.85;5.70;;;;;;;;;;5034037;28;20091;-64
2022/01/13 04:34:10;;;;;;;8.75;4.85;;;;;;;;;;5034452;28;20041;-67
2022/01/13 04:36:36;;;;;;;13.05;5.20;;;;;;;;;;5034203;28;20431;-63
2022/01/13 04:39:04;;;;;;;11.27;4.85;;;;;;;;;;5034106;28;20029;-64
2022/01/13 04:41:34;;;;;;;8.85;5.90;;;;;;;;;;5027009;28;20234;-63
2022/01/13 04:44:00;;;;;;;9.35;4.93;;;;;;;;;;5019171;28;20547;-65
2022/01/13 04:46:26;;;;;;;10.50;6.35;;;;;;;;;;5014399;28;20388;-62
2022/01/13 04:48:52;;;;;;;9.30;6.38;;;;;;;;;;5012766;28;20045;-63
2022/01/13 04:51:18;;;;;;;10.50;6.68;;;;;;;;;;5013737;28;20029;-65
2022/01/13 04:53:44;;;;;;;7.43;4.63;;;;;;;;;;5013723;28;20037;-72
2022/01/13 04:56:14;;;;;;;9.55;4.68;;;;;;;;;;5013085;28;20097;-70
2022/01/13 04:58:40;;;;;;;9.65;5.93;;;;;;;;;;5030917;28;20041;-63
2022/01/13 05:01:06;;;;;;;10.27;5.35;;;;;;;;;;5032808;28;20033;-70
2022/01/13 05:03:32;;;;;;;11.20;7.25;;;;;;;;;;5033437;28;20408;-71
2022/01/13 05:05:58;;;;;;;11.55;6.25;;;;;;;;;;5032641;28;20030;-71
2022/01/13 05:08:24;;;;;;;11.55;7.00;;;;;;;;;;5032975;28;20064;-74
2022/01/13 05:10:49;;;;;;;10.85;7.95;;;;;;;;;;5033199;28;20030;-68
2022/01/13 05:13:15;;;;;;;10.30;6.50;;;;;;;;;;5032643;28;20052;-69
2022/01/13 05:15:44;;;;;;;12.48;8.25;;;;;;;;;;5032120;28;20037;-70
2022/01/13 05:19:10;;;;;;;8.70;6.53;;;;;;;;;;5031749;28;20408;-70
2022/01/13 05:21:07;;;;;;;9.65;6.63;;;;;;;;;;5035153;28;20401;-68
2022/01/13 05:23:33;;;;;;;10.82;6.90;;;;;;;;;;5031769;28;20037;-69
2022/01/13 05:25:59;;;;;;;10.57;5.80;;;;;;;;;;5030369;28;20377;-67
2022/01/13 05:28:25;;;;;;;12.05;6.78;;;;;;;;;;5032072;28;20381;-69
2022/01/13 05:30:51;;;;;;;11.95;6.40;;;;;;;;;;5027399;28;20037;-70
2022/01/13 05:33:17;;;;;;;11.98;6.72;;;;;;;;;;5030141;28;20357;-69
2022/01/13 05:35:43;;;;;;;13.02;5.53;;;;;;;;;;5029224;28;20045;-68
2022/01/13 05:38:09;;;;;;;10.15;5.85;;;;;;;;;;5030246;28;20068;-69
2022/01/13 05:40:36;;;;;;;10.50;6.43;;;;;;;;;;5031617;28;20021;-68
2022/01/13 05:43:04;;;;;;;9.90;6.07;;;;;;;;;;5031792;28;20029;-71
2022/01/13 05:45:33;;;;;;;8.93;5.72;;;;;;;;;;5031566;28;20441;-69
2022/01/13 05:48:00;;;;;;;7.70;4.22;;;;;;;;;;5031252;28;20048;-68
2022/01/13 05:50:27;;;;;;;9.93;5.65;;;;;;;;;;5031812;28;20517;-69
2022/01/13 05:52:54;;;;;;;9.43;5.18;;;;;;;;;;5030348;28;20484;-68
2022/01/13 05:55:20;;;;;;;10.40;6.00;;;;;;;;;;5030070;28;20187;-68
2022/01/13 05:57:46;;;;;;;11.05;5.82;;;;;;;;;;5031626;28;20033;-68
2022/01/13 06:00:14;;;;;;;13.77;6.45;;;;;;;;;;5030172;28;20032;-68
2022/01/13 06:02:41;;;;;;;10.23;6.45;;;;;;;;;;5031342;28;20053;-69
2022/01/13 06:05:08;;;;;;;12.50;5.65;;;;;;;;;;5031424;28;20054;-70
2022/01/13 06:07:34;;;;;;;12.25;6.85;;;;;;;;;;5029678;28;20033;-68
2022/01/13 06:10:00;;;;;;;10.32;5.90;;;;;;;;;;5031386;28;20056;-69
2022/01/13 06:12:35;;;;;;;13.85;8.07;;;;;;;;;;5031302;28;20091;-70
2022/01/13 06:15:03;;;;;;;14.07;6.55;;;;;;;;;;5028678;28;20038;-70
2022/01/13 06:17:29;;;;;;;18.70;7.55;;;;;;;;;;5027757;28;20535;-71
2022/01/13 06:19:55;;;;;;;14.55;7.13;;;;;;;;;;5031255;28;20076;-73
2022/01/13 06:22:24;;;;;;;13.80;7.57;;;;;;;;;;5031661;28;20029;-71
2022/01/13 06:24:50;;;;;;;11.02;7.05;;;;;;;;;;5031300;28;20034;-70
2022/01/13 06:27:16;;;;;;;11.73;7.85;;;;;;;;;;5031270;28;20036;-73
2022/01/13 06:29:42;;;;;;;11.63;7.83;;;;;;;;;;4977359;28;1544458;-75
2022/01/13 06:32:07;;;;;;;16.23;8.23;;;;;;;;;;5031764;28;20480;-68
2022/01/13 06:34:33;;;;;;;12.45;7.18;;;;;;;;;;5032099;28;20075;-71
2022/01/13 06:36:59;;;;;;;11.60;5.40;;;;;;;;;;5032360;28;20067;-71
2022/01/13 06:39:25;;;;;;;13.30;9.00;;;;;;;;;;5032389;28;20037;-76
2022/01/13 06:41:50;;;;;;;11.80;7.38;;;;;;;;;;5032359;28;20021;-71
2022/01/13 06:44:17;;;;;;;14.93;6.88;;;;;;;;;;5032173;28;20116;-69
2022/01/13 06:46:42;;;;;;;14.63;8.52;;;;;;;;;;5032376;28;20021;-73
2022/01/13 06:49:08;;;;;;;12.80;8.20;;;;;;;;;;5030759;28;20130;-73
2022/01/13 06:51:34;;;;;;;17.48;9.52;;;;;;;;;;5032175;28;20052;-75
2022/01/13 06:54:00;;;;;;;29.63;9.23;;;;;;;;;;5031811;28;20099;-75
2022/01/13 06:56:26;;;;;;;14.02;8.32;;;;;;;;;;5032072;28;20408;-70
2022/01/13 06:58:54;;;;;;;12.25;6.57;;;;;;;;;;5032138;28;20045;-71
2022/01/13 07:01:22;;;;;;;13.75;10.25;;;;;;;;;;5031514;28;20112;-69
2022/01/13 07:03:47;;;;;;;12.88;6.82;;;;;;;;;;5032343;28;20030;-67
2022/01/13 07:06:13;;;;;;;18.83;7.68;;;;;;;;;;5032353;28;20466;-73
2022/01/13 07:08:39;;;;;;;11.25;7.18;;;;;;;;;;5032047;28;20072;-69
2022/01/13 07:11:05;;;;;;;13.02;8.75;;;;;;;;;;5031754;28;20021;-67
2022/01/13 07:13:31;;;;;;;14.30;9.63;;;;;;;;;;5032078;28;20025;-69
2022/01/13 07:15:59;;;;;;;12.02;7.18;;;;;;;;;;5031503;28;20374;-67
2022/01/13 07:18:25;;;;;;;14.32;8.48;;;;;;;;;;5029046;28;20048;-69
2022/01/13 07:20:51;;;;;;;14.93;9.27;;;;;;;;;;5031522;28;20426;-70
2022/01/13 07:23:17;;;;;;;12.90;8.45;;;;;;;;;;5029801;28;20069;-69
2022/01/13 07:25:43;;;;;;;13.88;8.05;;;;;;;;;;5031398;28;20108;-67
2022/01/13 07:28:10;;;;;;;17.67;9.77;;;;;;;;;;5032112;28;20048;-69
2022/01/13 07:30:36;;;;;;;14.60;8.52;;;;;;;;;;5034817;28;20045;-66
2022/01/13 07:33:02;;;;;;;17.55;8.75;;;;;;;;;;5034823;28;20485;-67
2022/01/13 07:35:28;;;;;;;13.70;7.70;;;;;;;;;;5033221;28;20032;-67
2022/01/13 07:37:53;;;;;;;13.38;6.95;;;;;;;;;;5030815;28;20480;-67
2022/01/13 07:40:19;;;;;;;12.50;7.22;;;;;;;;;;5017626;28;20018;-69
2022/01/13 07:42:46;;;;;;;12.70;8.30;;;;;;;;;;5015247;28;20026;-66
2022/01/13 07:45:15;;;;;;;13.13;8.25;;;;;;;;;;5014856;28;20022;-69
2022/01/13 07:47:41;;;;;;;11.88;6.72;;;;;;;;;;5021902;28;20124;-68
2022/01/13 07:50:09;;;;;;;15.32;8.50;;;;;;;;;;5035985;28;20538;-69
2022/01/13 07:52:34;;;;;;;12.45;6.68;;;;;;;;;;5034929;28;20041;-69
2022/01/13 07:55:00;;;;;;;13.52;7.30;;;;;;;;;;5034421;28;20094;-73
2022/01/13 07:57:26;;;;;;;12.57;8.30;;;;;;;;;;5033898;28;20165;-69
2022/01/13 07:59:56;;;;;;;11.23;6.25;;;;;;;;;;5034035;28;20373;-67
2022/01/13 08:02:22;;;;;;;11.75;7.03;;;;;;;;;;5026454;28;20400;-68
2022/01/13 08:04:49;;;;;;;12.77;7.13;;;;;;;;;;5014392;28;20029;-69
2022/01/13 08:07:15;;;;;;;11.43;6.38;;;;;;;;;;5013197;28;20038;-68
2022/01/13 08:09:41;;;;;;;11.15;6.65;;;;;;;;;;5014196;28;20148;-69
2022/01/13 08:12:08;;;;;;;10.27;6.72;;;;;;;;;;5015043;28;20120;-69
2022/01/13 08:14:33;;;;;;;10.80;6.13;;;;;;;;;;5014704;28;20030;-70
2022/01/13 08:17:02;;;;;;;14.13;7.55;;;;;;;;;;5021285;28;20052;-73
2022/01/13 08:19:46;;;;;;;12.85;8.52;;;;;;;;;;5034564;28;20048;-75
2022/01/13 08:22:16;;;;;;;14.05;8.48;;;;;;;;;;5033537;28;20025;-72
2022/01/13 08:24:43;;;;;;;14.00;9.32;;;;;;;;;;5033705;28;20488;-74
2022/01/13 08:27:09;;;;;;;13.57;9.02;;;;;;;;;;5033539;28;20507;-70
2022/01/13 08:29:35;;;;;;;12.00;7.00;;;;;;;;;;5033097;28;20124;-72
2022/01/13 08:32:02;;;;;;;10.55;6.03;;;;;;;;;;5033580;28;20040;-75
2022/01/13 08:34:27;;;;;;;11.70;6.88;;;;;;;;;;5032199;28;20507;-73
2022/01/13 08:36:53;;;;;;;12.68;6.32;;;;;;;;;;5033779;28;20127;-69
2022/01/13 08:39:19;;;;;;;13.95;7.88;;;;;;;;;;5033056;28;20119;-72
2022/01/13 08:41:45;;;;;;;11.50;6.47;;;;;;;;;;5033483;28;20106;-72
2022/01/13 08:44:11;;;;;;;12.13;6.40;;;;;;;;;;5033691;28;20029;-74
2022/01/13 08:46:37;;;;;;;12.30;7.03;;;;;;;;;;5033025;28;20033;-71
2022/01/13 08:49:03;;;;;;;13.63;7.70;;;;;;;;;;5032788;28;20029;-73
2022/01/13 08:51:29;;;;;;;10.32;6.00;;;;;;;;;;5033238;28;20037;-69
2022/01/13 08:53:55;;;;;;;11.88;5.90;;;;;;;;;;5032937;28;20029;-75
2022/01/13 08:56:21;;;;;;;11.00;6.80;;;;;;;;;;5033176;28;20034;-76
2022/01/13 08:58:47;;;;;;;12.27;7.40;;;;;;;;;;5032919;28;20051;-68
2022/01/13 09:01:14;;;;;;;14.63;8.60;;;;;;;;;;5032285;28;20033;-70
2022/01/13 09:03:39;;;;;;;10.43;7.07;;;;;;;;;;5032480;28;20426;-67
2022/01/13 09:06:06;;;;;;;12.52;7.97;;;;;;;;;;5032705;28;20041;-69
2022/01/13 09:08:32;;;;;;;16.85;7.78;;;;;;;;;;5032716;28;20029;-67
2022/01/13 09:10:58;;;;;;;13.05;6.68;;;;;;;;;;5032654;28;20033;-69
2022/01/13 09:13:24;;;;;;;11.20;7.40;;;;;;;;;;5032677;28;20502;-67
2022/01/13 09:16:15;;;;;;;10.45;6.55;;;;;;;;;;5032919;28;20618;-70
2022/01/13 09:18:58;;;;;;;13.38;7.18;;;;;;;;;;5032705;28;20073;-67
2022/01/13 09:21:29;;;;;;;11.50;7.63;;;;;;;;;;5033113;28;20542;-68
2022/01/13 09:23:55;;;;;;;14.48;7.80;;;;;;;;;;5032895;28;20042;-67
2022/01/13 09:26:21;;;;;;;15.13;9.05;;;;;;;;;;5032359;28;20018;-66
2022/01/13 09:28:47;;;;;;;12.27;8.40;;;;;;;;;;5032574;28;20059;-67
2022/01/13 09:31:13;;;;;;;12.98;6.95;;;;;;;;;;5032507;28;20098;-70
2022/01/13 09:33:39;;;;;;;12.90;8.18;;;;;;;;;;5032713;28;20131;-68
2022/01/13 09:36:09;;;;;;;12.80;7.82;;;;;;;;;;5032463;28;20487;-68
2022/01/13 09:38:35;;;;;;;13.15;7.50;;;;;;;;;;5031554;28;20029;-69
2022/01/13 09:41:01;;;;;;;13.82;8.27;;;;;;;;;;5032557;28;20021;-70
2022/01/13 09:43:28;;;;;;;14.10;8.68;;;;;;;;;;5032312;28;20052;-71
2022/01/13 09:45:57;;;;;;;11.57;6.32;;;;;;;;;;5032340;28;20357;-72
2022/01/13 09:48:23;;;;;;;15.30;9.02;;;;;;;;;;5032624;28;20049;-71
2022/01/13 09:50:49;;;;;;;14.20;7.65;;;;;;;;;;5030862;28;20026;-70
2022/01/13 09:53:16;;;;;;;14.60;8.25;;;;;;;;;;5031551;28;20043;-69
2022/01/13 09:55:44;;;;;;;11.88;8.02;;;;;;;;;;5032166;28;20026;-68
2022/01/13 09:58:11;;;;;;;12.57;7.93;;;;;;;;;;5032021;28;20040;-68
2022/01/13 10:00:39;;;;;;;14.68;7.07;;;;;;;;;;5031856;28;20094;-70
2022/01/13 10:03:25;;;;;;;11.32;7.15;;;;;;;;;;5032109;28;20492;-69
2022/01/13 10:05:59;;;;;;;14.65;8.32;;;;;;;;;;5032021;28;20034;-70
2022/01/13 10:08:40;;;;;;;14.07;7.43;;;;;;;;;;5031865;28;20037;-70
2022/01/13 10:11:28;;;;;;;14.32;7.18;;;;;;;;;;5032329;28;20033;-71
2022/01/13 10:17:01;;;;;;;13.27;7.93;;;;;;;;;;5010113;28;20128;-69
2022/01/13 10:19:44;;;;;;;13.60;7.72;;;;;;;;;;5031857;28;20032;-75
2022/01/13 10:22:13;;;;;;;11.13;6.32;;;;;;;;;;5031860;28;20040;-70
2022/01/13 10:24:42;;;;;;;12.27;7.65;;;;;;;;;;5031563;28;20067;-71
2022/01/13 10:27:13;;;;;;;10.20;6.70;;;;;;;;;;5032024;28;20060;-75
2022/01/13 10:29:54;;;;;;;12.90;7.65;;;;;;;;;;5030310;28;20120;-72
2022/01/13 10:32:22;;;;;;;10.98;7.75;;;;;;;;;;5032119;28;20046;-75
2022/01/13 10:34:51;;;;;;;9.65;5.32;;;;;;;;;;5032145;28;20026;-71
2022/01/13 10:37:28;;;;;;;11.30;7.65;;;;;;;;;;5031912;28;20056;-72
2022/01/13 10:40:00;;;;;;;13.68;7.15;;;;;;;;;;5031556;28;20030;-73
2022/01/13 10:45:20;;;;;;;12.32;6.35;;;;;;;;;;5031707;28;20112;-72
2022/01/13 10:47:56;;;;;;;9.25;5.18;;;;;;;;;;5031400;28;20061;-74
2022/01/13 10:50:29;;;;;;;11.35;7.72;;;;;;;;;;5031698;28;20580;-73
2022/01/13 10:53:02;;;;;;;11.55;6.68;;;;;;;;;;5031567;28;20041;-69
2022/01/13 10:55:29;;;;;;;13.05;7.97;;;;;;;;;;5031615;28;20030;-68
2022/01/13 10:57:56;;;;;;;11.70;6.60;;;;;;;;;;5031881;28;20368;-69
2022/01/13 11:00:24;;;;;;;10.77;7.28;;;;;;;;;;5031978;28;20037;-69
2022/01/13 11:03:05;;;;;;;12.40;8.15;;;;;;;;;;5031752;28;20498;-68
2022/01/13 11:05:36;;;;;;;11.68;6.80;;;;;;;;;;5035306;28;20026;-69
2022/01/13 11:08:06;;;;;;;13.00;6.70;;;;;;;;;;5035325;28;20048;-70
2022/01/13 11:10:33;;;;;;;11.85;7.30;;;;;;;;;;5033946;28;20034;-67
2022/01/13 11:13:01;;;;;;;12.73;8.05;;;;;;;;;;5035408;28;20021;-69
2022/01/13 11:15:27;;;;;;;11.90;6.28;;;;;;;;;;5034974;28;20359;-69
2022/01/13 11:17:56;;;;;;;10.48;7.90;;;;;;;;;;5034935;28;20044;-67
2022/01/13 11:20:23;;;;;;;19.42;7.97;;;;;;;;;;5035042;28;20037;-68
2022/01/13 11:22:53;;;;;;;12.75;7.90;;;;;;;;;;5034534;28;20021;-69
2022/01/13 11:25:23;;;;;;;11.95;7.32;;;;;;;;;;5034644;28;20033;-69
2022/01/13 11:27:51;;;;;;;13.20;8.60;;;;;;;;;;5034481;28;20033;-67
2022/01/13 11:30:22;;;;;;;12.55;7.22;;;;;;;;;;5034258;28;20076;-71
2022/01/13 11:32:50;;;;;;;12.93;8.98;;;;;;;;;;5033768;28;20033;-68
2022/01/13 11:35:21;;;;;;;14.50;8.30;;;;;;;;;;5033640;28;20044;-70
2022/01/13 11:37:47;;;;;;;10.82;7.50;;;;;;;;;;5034622;28;20048;-68
2022/01/13 11:40:35;;;;;;;14.98;8.18;;;;;;;;;;5017215;28;20041;-70
2022/01/13 11:43:03;;;;;;;10.80;7.55;;;;;;;;;;5034629;28;20030;-67
2022/01/13 11:45:29;;;;;;;12.55;5.93;;;;;;;;;;5034178;28;20026;-68
2022/01/13 11:48:13;;;;;;;11.93;7.13;;;;;;;;;;5033917;28;20061;-68
2022/01/13 11:50:46;;;;;;;14.85;7.00;;;;;;;;;;5034535;28;20368;-69
2022/01/13 11:53:32;;;;;;;15.00;7.22;;;;;;;;;;5034794;28;20531;-68
2022/01/13 11:56:03;;;;;;;9.48;6.22;;;;;;;;;;5034249;28;20038;-69
2022/01/13 11:58:40;;;;;;;11.52;5.65;;;;;;;;;;5034523;28;20037;-71
2022/01/13 12:01:21;;;;;;;10.13;7.13;;;;;;;;;;5034327;28;20056;-68
2022/01/13 12:03:56;;;;;;;14.43;7.45;;;;;;;;;;5033959;28;20391;-69
2022/01/13 12:06:39;;;;;;;10.32;6.28;;;;;;;;;;5034567;28;20077;-69
2022/01/13 12:09:30;;;;;;;11.07;6.15;;;;;;;;;;5034347;28;20042;-70
2022/01/13 12:11:56;;;;;;;11.57;5.75;;;;;;;;;;5033335;28;20042;-67
2022/01/13 12:14:25;;;;;;;12.93;7.35;;;;;;;;;;5034134;28;20053;-70
2022/01/13 12:16:57;;;;;;;11.93;6.18;;;;;;;;;;5034490;28;20043;-72
2022/01/13 12:19:51;;;;;;;11.85;7.60;;;;;;;;;;5034204;28;20443;-70
2022/01/13 12:22:33;;;;;;;15.32;8.35;;;;;;;;;;5033882;28;20079;-74
2022/01/13 12:25:01;;;;;;;11.80;6.82;;;;;;;;;;5033696;28;20030;-73
2022/01/13 12:27:40;;;;;;;13.68;8.18;;;;;;;;;;5033055;28;20035;-72
2022/01/13 12:30:06;;;;;;;13.82;8.02;;;;;;;;;;5030918;28;20033;-74
2022/01/13 12:32:36;;;;;;;15.52;7.30;;;;;;;;;;5034268;28;20048;-73
2022/01/13 12:35:04;;;;;;;11.57;6.85;;;;;;;;;;5033853;28;20040;-73
2022/01/13 12:37:31;;;;;;;15.55;6.72;;;;;;;;;;5033857;28;20032;-72
2022/01/13 12:40:09;;;;;;;12.43;7.88;;;;;;;;;;5033829;28;20046;-69
2022/01/13 12:42:35;;;;;;;14.32;7.80;;;;;;;;;;5030241;28;20065;-69
2022/01/13 12:47:46;;;;;;;12.57;8.23;;;;;;;;;;5033383;28;20045;-70
2022/01/13 12:50:24;;;;;;;17.05;8.30;;;;;;;;;;5033930;28;20021;-69
2022/01/13 12:52:51;;;;;;;11.65;7.30;;;;;;;;;;5033624;28;20045;-69
2022/01/13 12:55:18;;;;;;;14.52;8.20;;;;;;;;;;5033680;28;20519;-71
2022/01/13 12:57:55;;;;;;;11.32;7.38;;;;;;;;;;5033440;28;20041;-68
2022/01/13 13:00:24;;;;;;;15.10;8.00;;;;;;;;;;5033319;28;20045;-69
2022/01/13 13:03:06;;;;;;;15.57;8.55;;;;;;;;;;5033858;28;20122;-68
2022/01/13 13:05:43;;;;;;;19.95;10.40;;;;;;;;;;5032188;28;20037;-71
2022/01/13 13:08:14;;;;;;;13.35;7.38;;;;;;;;;;5013372;28;20030;-70
2022/01/13 13:10:45;;;;;;;16.75;7.90;;;;;;;;;;5013033;28;20539;-70
2022/01/13 13:13:12;;;;;;;15.95;6.90;;;;;;;;;;5023480;28;20562;-69
2022/01/13 13:18:04;;;;;;;12.52;7.32;;;;;;;;;;5031611;28;20037;-71
2022/01/13 13:20:32;;;;;;;12.80;7.13;;;;;;;;;;5033047;28;20033;-69
2022/01/13 13:23:03;;;;;;;13.80;7.95;;;;;;;;;;5015369;28;20632;-70
2022/01/13 13:25:44;;;;;;;14.43;7.97;;;;;;;;;;5032940;28;20033;-72
2022/01/13 13:28:39;;;;;;;15.35;7.28;;;;;;;;;;5032894;28;20037;-71
2022/01/13 13:31:28;;;;;;;11.85;7.22;;;;;;;;;;5031924;28;20045;-71
2022/01/13 13:33:55;;;;;;;16.10;7.30;;;;;;;;;;5032521;28;20053;-70
2022/01/13 13:36:26;;;;;;;16.38;9.15;;;;;;;;;;5032771;28;20045;-70
2022/01/13 13:39:04;;;;;;;11.73;6.85;;;;;;;;;;5033094;28;20033;-71
2022/01/13 13:41:36;;;;;;;10.77;6.20;;;;;;;;;;5032573;28;20041;-69
2022/01/13 13:44:03;;;;;;;11.35;7.05;;;;;;;;;;5031340;28;20039;-70
2022/01/13 13:46:29;;;;;;;10.73;6.47;;;;;;;;;;5032638;28;20049;-69
2022/01/13 13:48:56;;;;;;;14.02;7.97;;;;;;;;;;5031956;28;20109;-70
2022/01/13 13:51:23;;;;;;;14.48;7.65;;;;;;;;;;5031326;28;20021;-67
2022/01/13 13:54:08;;;;;;;15.00;7.38;;;;;;;;;;5032477;28;20421;-68
2022/01/13 13:56:41;;;;;;;14.32;7.28;;;;;;;;;;5031898;28;20080;-70
2022/01/13 13:59:11;;;;;;;;;;;;;;;;;;5032560;28;20049;-70
2022/01/13 14:01:38;;;;;;;10.52;6.57;;;;;;;;;;5032402;28;20315;-69
2022/01/13 14:04:04;;;;;;;18.75;8.60;;;;;;;;;;5032678;28;20037;-68
2022/01/13 14:06:43;;;;;;;14.88;7.72;;;;;;;;;;5032229;28;20080;-70
2022/01/13 14:09:11;;;;;;;13.48;7.30;;;;;;;;;;5032240;28;20033;-67
2022/01/13 14:11:48;;;;;;;21.95;8.05;;;;;;;;;;5032606;28;20060;-68
2022/01/13 14:14:16;;;;;;;14.90;8.05;;;;;;;;;;5031092;28;20124;-75
2022/01/13 14:16:41;;;;;;;14.23;7.82;;;;;;;;;;5032395;28;20442;-72
2022/01/13 14:19:10;;;;;;;18.05;9.52;;;;;;;;;;5032371;28;20117;-74
2022/01/13 14:21:53;;;;;;;8.82;5.25;;;;;;;;;;5032359;28;20033;-69
2022/01/13 14:24:51;;;;;;;10.73;6.43;;;;;;;;;;5031968;28;20041;-68
2022/01/13 14:27:20;;;;;;;12.75;6.82;;;;;;;;;;5031461;28;20104;-72
2022/01/13 14:29:51;;;;;;;17.20;7.13;;;;;;;;;;5032360;28;20021;-70
2022/01/13 14:32:23;;;;;;;11.68;6.82;;;;;;;;;;5032110;28;20038;-68
2022/01/13 14:34:55;;;;;;;13.65;7.30;;;;;;;;;;5032495;28;20034;-68
2022/01/13 14:37:24;;;;;;;13.52;7.72;;;;;;;;;;5031484;28;20057;-71
2022/01/13 14:40:21;;;;;;;18.40;7.57;;;;;;;;;;5050795;28;20349;-68
2022/01/13 14:42:48;;;;;;;12.30;6.95;;;;;;;;;;5036331;28;20079;-70
2022/01/13 14:45:22;;;;;;;14.15;6.90;;;;;;;;;;5031824;28;20029;-69
2022/01/13 14:47:51;;;;;;;14.32;7.35;;;;;;;;;;5034711;28;20041;-70
2022/01/13 14:50:16;;;;;;;12.98;7.20;;;;;;;;;;5035094;28;20117;-66
2022/01/13 14:52:47;;;;;;;14.63;7.60;;;;;;;;;;5034750;28;20374;-67
2022/01/13 14:55:13;;;;;;;14.27;7.63;;;;;;;;;;5034214;28;20038;-69
2022/01/13 14:57:38;;;;;;;12.20;7.70;;;;;;;;;;5034882;28;20037;-67
2022/01/13 15:00:05;;;;;;;11.98;7.00;;;;;;;;;;5034881;28;20043;-67
2022/01/13 15:02:32;;;;;;;12.48;6.80;;;;;;;;;;5034365;28;20030;-69
2022/01/13 15:04:58;;;;;;;15.18;8.05;;;;;;;;;;5034846;28;20041;-68
2022/01/13 15:07:24;;;;;;;25.48;8.30;;;;;;;;;;5029048;28;20401;-69
2022/01/13 15:09:50;;;;;;;14.45;8.35;;;;;;;;;;5034117;28;20029;-71
2022/01/13 15:12:16;;;;;;;18.20;8.40;;;;;;;;;;5032900;28;20029;-68
2022/01/13 15:14:42;;;;;;;13.63;7.55;;;;;;;;;;5032267;28;20038;-71